PST,Max TemperatureF,Mean TemperatureF,Min TemperatureF,Max Dew PointF,MeanDew PointF,Min DewpointF,Max Humidity, Mean Humidity, Min Humidity, Max Sea Level PressureIn, Mean Sea Level PressureIn, Min Sea Level PressureIn, Max VisibilityMiles, Mean VisibilityMiles, Min VisibilityMiles, Max Wind SpeedMPH, Mean Wind SpeedMPH, Max Gust SpeedMPH,PrecipitationIn, CloudCover, Events, WindDirDegrees
2012-12-1,53,52,50,50,47,43,94,84,71,29.75,29.60,29.32,10,6,2,30,20,39,0.51,6,Rain,188
2012-12-2,51,48,46,50,45,41,100,84,76,29.98,29.67,29.30,10,7,3,28,16,36,0.30,7,Rain,219
2012-12-3,51,48,46,50,47,45,94,88,82,30.06,29.95,29.61,10,7,2,28,18,46,0.57,8,Rain,176
2012-12-4,53,50,48,54,51,43,100,96,76,30.03,29.82,29.60,10,3,1,47,26,68,1.07,8,Rain,218
2012-12-5,51,44,37,43,40,36,100,84,62,30.32,30.22,30.04,10,9,5,12,5,17,0.04,5,Rain,94
2012-12-6,50,44,37,45,42,36,100,91,82,30.29,30.26,30.23,10,9,2,17,5,21,0.16,7,Rain,196
2012-12-7,51,46,42,46,44,39,93,87,76,30.29,30.24,30.21,10,8,2,17,9,21,0.13,8,Rain,259
2012-12-8,46,44,41,45,42,39,100,95,87,30.39,30.32,30.28,10,9,4,8,2,,0.10,7,Rain,118
2012-12-9,50,46,42,50,45,41,100,95,87,30.42,30.39,30.37,10,6,2,10,4,17,0.09,8,Rain,149
2012-12-10,50,46,41,50,46,41,100,95,87,30.47,30.38,30.15,10,8,0,10,4,,0.01,7,Fog,18
2012-12-11,46,44,42,46,43,37,100,90,76,30.16,29.86,29.68,10,8,2,20,8,28,0.37,8,Rain,237
2012-12-12,44,40,35,43,39,36,100,91,76,30.04,29.91,29.78,10,9,0,12,6,17,0.26,5,Fog-Rain,123
2012-12-13,46,39,32,41,37,32,100,95,76,30.06,29.98,29.87,10,7,0,9,5,,0.04,4,Fog-Rain,93
2012-12-14,50,42,35,43,37,34,100,87,58,30.00,29.94,29.86,10,9,5,14,5,21,0.17,5,Rain,70
2012-12-15,46,40,35,45,37,34,100,85,66,29.95,29.81,29.65,10,8,1,26,9,44,0.52,6,Rain,185
2012-12-16,51,46,42,52,43,36,100,88,66,29.88,29.57,29.24,10,5,1,41,18,64,0.71,8,Rain,205
2012-12-17,50,44,39,43,36,32,87,75,57,30.05,29.84,29.41,10,7,4,31,22,51,0.05,7,Rain,264
2012-12-18,44,40,35,36,33,32,93,79,61,30.09,30.06,30.03,10,10,5,20,8,30,0.04,6,Rain,230
2012-12-19,50,44,37,45,40,36,93,87,76,30.04,29.80,29.60,10,8,4,41,19,63,0.93,8,Rain,176
2012-12-20,46,40,33,45,36,34,100,92,81,29.80,29.73,29.61,10,7,2,22,13,40,1.87,5,Rain,145
2012-12-21,46,42,37,41,39,36,93,86,76,29.77,29.70,29.61,10,10,5,15,9,24,0.36,6,Rain,132
2012-12-22,48,44,39,41,38,36,93,86,71,29.77,29.64,29.51,10,9,4,26,11,38,0.54,6,Rain,153
2012-12-23,44,42,39,41,38,37,100,87,76,29.96,29.76,29.66,10,10,4,15,9,25,0.20,7,Rain,169
2012-12-24,46,44,41,43,39,37,100,87,76,30.23,30.12,29.97,10,10,4,12,7,18,0.13,6,Rain,140
2012-12-25,50,44,39,48,42,37,100,92,81,30.01,29.72,29.64,10,8,3,24,10,32,0.60,8,Rain,149
2012-12-26,46,44,41,45,41,37,93,88,76,30.10,29.91,29.72,10,7,3,15,8,26,0.47,8,Rain,286
2012-12-27,44,40,37,43,40,36,100,92,87,30.21,30.17,30.10,10,10,5,8,3,,0.09,7,Rain-Snow,136
2012-12-28,42,40,37,41,40,36,100,93,87,30.16,30.13,30.09,10,10,10,8,5,,0.00,7,,88
2012-12-29,44,40,35,41,37,34,100,92,81,30.23,30.19,30.16,10,9,2,10,6,,0.00,6,,87
2012-12-30,44,38,33,37,34,32,93,84,75,30.30,30.26,30.23,10,10,10,15,9,18,0.00,0,,84
2012-12-31,42,38,33,39,35,32,100,89,81,30.37,30.28,30.23,10,10,5,14,8,18,0.03,6,Rain,84